Terminal Aerodrome Forecast
Issued by NWS Shreveport, LA

Home | Current Version | Previous Version | Text Only | Print | Product List | Glossary On
Versions: 1 2 3 4 5 6 7 8 9 10 11 12 13 14 15 16 17 18 19 20 21 22 23
000
FTUS44 KSHV 301743
TAFLFK
TAF
KLFK 301743Z 3018/3118 21008KT P6SM FEW025 BKN035
     FM302100 24009KT P6SM SCT040 BKN050
     FM310300 18003KT P6SM FEW035 SCT200
     FM310700 20006KT P6SM BKN015 OVC150
      TEMPO 3109/3113 2SM BR OVC008
     FM311500 23008KT P6SM BKN015 OVC025=

USA.gov is the U.S. government's official web portal to all federal, state and local government web resources and services.